sensor_id;sensor_type;location;lat;lon;timestamp;pressure;altitude;pressure_sealevel;temperature;humidity
36254;BME280;22291;52.250;21.228;2023-04-02T00:02:24;99271.84;;;6.66;87.61
36254;BME280;22291;52.250;21.228;2023-04-02T00:07:49;99276.56;;;6.61;88.04
36254;BME280;22291;52.250;21.228;2023-04-02T00:10:35;99275.22;;;6.61;88.21
36254;BME280;22291;52.250;21.228;2023-04-02T00:15:45;99292.98;;;6.59;88.34
36254;BME280;22291;52.250;21.228;2023-04-02T00:18:18;99290.05;;;6.58;88.53
36254;BME280;22291;52.250;21.228;2023-04-02T00:20:50;99299.70;;;6.59;88.57
36254;BME280;22291;52.250;21.228;2023-04-02T00:23:28;99296.20;;;6.59;88.54
36254;BME280;22291;52.250;21.228;2023-04-02T00:25:57;99298.41;;;6.57;88.48
36254;BME280;22291;52.250;21.228;2023-04-02T00:28:25;99303.00;;;6.56;88.52
36254;BME280;22291;52.250;21.228;2023-04-02T00:30:58;99305.98;;;6.54;88.50
36254;BME280;22291;52.250;21.228;2023-04-02T00:33:26;99309.77;;;6.53;88.57
36254;BME280;22291;52.250;21.228;2023-04-02T00:35:55;99306.90;;;6.50;88.46
36254;BME280;22291;52.250;21.228;2023-04-02T00:40:56;99314.77;;;6.46;88.36
36254;BME280;22291;52.250;21.228;2023-04-02T00:43:26;99305.98;;;6.43;88.42
36254;BME280;22291;52.250;21.228;2023-04-02T00:45:58;99314.55;;;6.45;88.41
36254;BME280;22291;52.250;21.228;2023-04-02T00:48:36;99313.51;;;6.44;88.44
36254;BME280;22291;52.250;21.228;2023-04-02T00:51:33;99317.28;;;6.43;88.48
36254;BME280;22291;52.250;21.228;2023-04-02T00:54:17;99318.37;;;6.42;88.46
36254;BME280;22291;52.250;21.228;2023-04-02T00:56:48;99322.95;;;6.41;88.62
36254;BME280;22291;52.250;21.228;2023-04-02T01:04:51;99330.71;;;6.43;88.56
36254;BME280;22291;52.250;21.228;2023-04-02T01:07:40;99332.61;;;6.42;88.41
36254;BME280;22291;52.250;21.228;2023-04-02T01:15:55;99344.75;;;6.40;88.16
36254;BME280;22291;52.250;21.228;2023-04-02T01:18:46;99344.52;;;6.39;87.99
36254;BME280;22291;52.250;21.228;2023-04-02T01:24:11;99346.34;;;6.41;88.13
36254;BME280;22291;52.250;21.228;2023-04-02T01:32:08;99354.94;;;6.40;87.93
36254;BME280;22291;52.250;21.228;2023-04-02T01:34:38;99354.45;;;6.38;87.92
36254;BME280;22291;52.250;21.228;2023-04-02T01:37:19;99355.80;;;6.38;87.84
36254;BME280;22291;52.250;21.228;2023-04-02T01:40:02;99360.86;;;6.40;87.76
36254;BME280;22291;52.250;21.228;2023-04-02T01:45:44;99360.08;;;6.39;87.75
36254;BME280;22291;52.250;21.228;2023-04-02T01:48:16;99361.47;;;6.36;87.57
36254;BME280;22291;52.250;21.228;2023-04-02T01:50:47;99366.84;;;6.36;87.49
36254;BME280;22291;52.250;21.228;2023-04-02T01:53:17;99367.39;;;6.36;87.38
36254;BME280;22291;52.250;21.228;2023-04-02T01:55:52;99368.81;;;6.33;87.46
36254;BME280;22291;52.250;21.228;2023-04-02T01:58:25;99369.03;;;6.34;87.36
36254;BME280;22291;52.250;21.228;2023-04-02T02:03:32;99372.88;;;6.31;87.42
36254;BME280;22291;52.250;21.228;2023-04-02T02:06:01;99375.56;;;6.31;87.41
36254;BME280;22291;52.250;21.228;2023-04-02T02:11:07;99386.98;;;6.25;87.43
36254;BME280;22291;52.250;21.228;2023-04-02T02:13:37;99387.83;;;6.23;87.42
36254;BME280;22291;52.250;21.228;2023-04-02T02:16:08;99390.00;;;6.21;87.58
36254;BME280;22291;52.250;21.228;2023-04-02T02:18:37;99402.64;;;6.21;87.57
36254;BME280;22291;52.250;21.228;2023-04-02T02:21:06;99403.01;;;6.16;87.45
36254;BME280;22291;52.250;21.228;2023-04-02T02:23:36;99406.52;;;6.14;87.34
36254;BME280;22291;52.250;21.228;2023-04-02T02:26:04;99413.04;;;6.11;87.47
36254;BME280;22291;52.250;21.228;2023-04-02T02:28:35;99412.85;;;6.07;87.37
36254;BME280;22291;52.250;21.228;2023-04-02T02:31:08;99403.75;;;6.06;87.62
36254;BME280;22291;52.250;21.228;2023-04-02T02:33:51;99409.41;;;6.04;87.82
36254;BME280;22291;52.250;21.228;2023-04-02T02:36:52;99408.08;;;6.04;87.96
36254;BME280;22291;52.250;21.228;2023-04-02T02:39:41;99411.31;;;6.04;87.89
36254;BME280;22291;52.250;21.228;2023-04-02T02:42:21;99417.05;;;6.00;87.80
36254;BME280;22291;52.250;21.228;2023-04-02T02:44:59;99419.77;;;5.97;87.70
36254;BME280;22291;52.250;21.228;2023-04-02T02:47:31;99426.75;;;5.95;87.75
36254;BME280;22291;52.250;21.228;2023-04-02T02:50:03;99420.89;;;5.93;87.68
36254;BME280;22291;52.250;21.228;2023-04-02T02:52:37;99428.16;;;5.93;87.58
36254;BME280;22291;52.250;21.228;2023-04-02T02:57:53;99426.84;;;5.90;87.67
36254;BME280;22291;52.250;21.228;2023-04-02T03:00:25;99429.30;;;5.89;87.76
36254;BME280;22291;52.250;21.228;2023-04-02T03:02:53;99433.92;;;5.86;87.62
36254;BME280;22291;52.250;21.228;2023-04-02T03:05:25;99432.61;;;5.84;87.57
36254;BME280;22291;52.250;21.228;2023-04-02T03:07:55;99435.85;;;5.83;87.52
36254;BME280;22291;52.250;21.228;2023-04-02T03:10:35;99438.53;;;5.83;87.53
36254;BME280;22291;52.250;21.228;2023-04-02T03:16:24;99437.03;;;5.77;87.38
36254;BME280;22291;52.250;21.228;2023-04-02T03:19:03;99448.06;;;5.75;87.54
36254;BME280;22291;52.250;21.228;2023-04-02T03:21:58;99444.03;;;5.75;87.69
36254;BME280;22291;52.250;21.228;2023-04-02T03:24:32;99449.11;;;5.77;87.76
36254;BME280;22291;52.250;21.228;2023-04-02T03:27:19;99454.23;;;5.76;87.64
36254;BME280;22291;52.250;21.228;2023-04-02T03:32:44;99462.81;;;5.75;87.55
36254;BME280;22291;52.250;21.228;2023-04-02T03:35:30;99463.86;;;5.77;87.63
36254;BME280;22291;52.250;21.228;2023-04-02T03:38:45;99471.88;;;5.79;87.67
36254;BME280;22291;52.250;21.228;2023-04-02T03:40:40;99469.98;;;5.80;87.65
36254;BME280;22291;52.250;21.228;2023-04-02T03:43:26;99478.03;;;5.80;87.65
36254;BME280;22291;52.250;21.228;2023-04-02T03:45:57;99481.27;;;5.79;87.55
36254;BME280;22291;52.250;21.228;2023-04-02T03:48:39;99490.87;;;5.83;87.58
36254;BME280;22291;52.250;21.228;2023-04-02T03:51:16;99490.08;;;5.83;87.48
36254;BME280;22291;52.250;21.228;2023-04-02T03:53:41;99496.03;;;5.79;87.53
36254;BME280;22291;52.250;21.228;2023-04-02T03:56:24;99499.80;;;5.78;87.47
36254;BME280;22291;52.250;21.228;2023-04-02T03:59:02;99500.94;;;5.75;87.38
36254;BME280;22291;52.250;21.228;2023-04-02T04:01:36;99504.77;;;5.71;87.37
36254;BME280;22291;52.250;21.228;2023-04-02T04:04:09;99508.32;;;5.67;87.29
36254;BME280;22291;52.250;21.228;2023-04-02T04:06:40;99509.17;;;5.65;87.37
36254;BME280;22291;52.250;21.228;2023-04-02T04:09:31;99515.09;;;5.64;87.57
36254;BME280;22291;52.250;21.228;2023-04-02T04:11:56;99519.91;;;5.65;87.60
36254;BME280;22291;52.250;21.228;2023-04-02T04:14:47;99521.01;;;5.64;87.54
36254;BME280;22291;52.250;21.228;2023-04-02T04:17:33;99525.06;;;5.61;87.57
36254;BME280;22291;52.250;21.228;2023-04-02T04:20:24;99529.09;;;5.61;87.63
36254;BME280;22291;52.250;21.228;2023-04-02T04:23:45;99528.33;;;5.58;87.61
36254;BME280;22291;52.250;21.228;2023-04-02T04:25:55;99539.06;;;5.58;87.72
36254;BME280;22291;52.250;21.228;2023-04-02T04:31:22;99533.20;;;5.56;87.74
36254;BME280;22291;52.250;21.228;2023-04-02T04:33:57;99545.83;;;5.55;87.81
36254;BME280;22291;52.250;21.228;2023-04-02T04:36:32;99550.43;;;5.52;87.57
36254;BME280;22291;52.250;21.228;2023-04-02T04:39:07;99550.22;;;5.49;87.41
36254;BME280;22291;52.250;21.228;2023-04-02T04:41:37;99552.35;;;5.49;87.60
36254;BME280;22291;52.250;21.228;2023-04-02T04:44:24;99560.40;;;5.49;87.70
36254;BME280;22291;52.250;21.228;2023-04-02T04:47:17;99567.10;;;5.49;87.54
36254;BME280;22291;52.250;21.228;2023-04-02T04:50:14;99561.80;;;5.47;87.44
36254;BME280;22291;52.250;21.228;2023-04-02T04:52:43;99566.92;;;5.43;87.35
36254;BME280;22291;52.250;21.228;2023-04-02T04:55:29;99564.31;;;5.38;87.27
36254;BME280;22291;52.250;21.228;2023-04-02T04:58:22;99574.81;;;5.37;87.25
36254;BME280;22291;52.250;21.228;2023-04-02T05:01:35;99578.86;;;5.34;87.18
36254;BME280;22291;52.250;21.228;2023-04-02T05:04:34;99581.37;;;5.28;87.14
36254;BME280;22291;52.250;21.228;2023-04-02T05:07:29;99576.88;;;5.23;87.32
36254;BME280;22291;52.250;21.228;2023-04-02T05:13:04;99591.13;;;5.21;87.57
36254;BME280;22291;52.250;21.228;2023-04-02T05:15:53;99595.38;;;5.22;87.75
36254;BME280;22291;52.250;21.228;2023-04-02T05:18:40;99602.69;;;5.19;87.50
36254;BME280;22291;52.250;21.228;2023-04-02T05:21:31;99613.22;;;5.13;87.30
36254;BME280;22291;52.250;21.228;2023-04-02T05:24:25;99615.39;;;5.11;87.25
36254;BME280;22291;52.250;21.228;2023-04-02T05:27:02;99618.65;;;5.08;87.13
36254;BME280;22291;52.250;21.228;2023-04-02T05:29:35;99620.06;;;5.03;86.99
36254;BME280;22291;52.250;21.228;2023-04-02T05:32:16;99625.70;;;5.01;87.07
36254;BME280;22291;52.250;21.228;2023-04-02T05:34:53;99621.39;;;5.03;87.29
36254;BME280;22291;52.250;21.228;2023-04-02T05:37:25;99624.09;;;5.00;87.14
36254;BME280;22291;52.250;21.228;2023-04-02T05:39:56;99621.41;;;5.00;87.13
36254;BME280;22291;52.250;21.228;2023-04-02T05:42:33;99626.03;;;4.97;86.94
36254;BME280;22291;52.250;21.228;2023-04-02T05:45:06;99633.81;;;4.96;86.91
36254;BME280;22291;52.250;21.228;2023-04-02T05:47:34;99643.75;;;4.93;86.87
36254;BME280;22291;52.250;21.228;2023-04-02T05:52:38;99654.24;;;4.92;87.05
36254;BME280;22291;52.250;21.228;2023-04-02T05:57:54;99658.83;;;4.89;87.04
36254;BME280;22291;52.250;21.228;2023-04-02T06:03:15;99663.13;;;4.88;87.00
36254;BME280;22291;52.250;21.228;2023-04-02T06:05:45;99668.48;;;4.88;87.00
36254;BME280;22291;52.250;21.228;2023-04-02T06:08:33;99662.91;;;4.84;86.71
36254;BME280;22291;52.250;21.228;2023-04-02T06:11:16;99677.66;;;4.81;86.79
36254;BME280;22291;52.250;21.228;2023-04-02T06:13:46;99675.86;;;4.77;86.85
36254;BME280;22291;52.250;21.228;2023-04-02T06:16:14;99685.75;;;4.76;87.00
36254;BME280;22291;52.250;21.228;2023-04-02T06:18:42;99694.06;;;4.77;86.97
36254;BME280;22291;52.250;21.228;2023-04-02T06:21:13;99689.77;;;4.76;87.13
36254;BME280;22291;52.250;21.228;2023-04-02T06:32:07;99700.03;;;4.69;87.38
36254;BME280;22291;52.250;21.228;2023-04-02T06:34:38;99711.83;;;4.68;87.58
36254;BME280;22291;52.250;21.228;2023-04-02T06:37:18;99717.13;;;4.73;87.99
36254;BME280;22291;52.250;21.228;2023-04-02T06:40:00;99717.12;;;4.76;87.97
36254;BME280;22291;52.250;21.228;2023-04-02T06:42:33;99724.83;;;4.80;88.06
36254;BME280;22291;52.250;21.228;2023-04-02T06:45:05;99723.77;;;4.81;88.12
36254;BME280;22291;52.250;21.228;2023-04-02T06:47:38;99723.20;;;4.84;88.14
36254;BME280;22291;52.250;21.228;2023-04-02T06:50:15;99730.63;;;4.90;88.42
36254;BME280;22291;52.250;21.228;2023-04-02T06:52:54;99730.84;;;4.96;88.24
36254;BME280;22291;52.250;21.228;2023-04-02T06:55:51;99722.80;;;4.96;88.19
36254;BME280;22291;52.250;21.228;2023-04-02T06:58:32;99724.39;;;4.97;88.24
36254;BME280;22291;52.250;21.228;2023-04-02T07:01:01;99730.84;;;4.96;87.65
36254;BME280;22291;52.250;21.228;2023-04-02T07:03:30;99732.20;;;4.93;87.56
36254;BME280;22291;52.250;21.228;2023-04-02T07:05:59;99735.98;;;4.92;87.85
36254;BME280;22291;52.250;21.228;2023-04-02T07:08:28;99739.73;;;4.91;87.88
36254;BME280;22291;52.250;21.228;2023-04-02T07:10:55;99735.98;;;4.92;88.10
36254;BME280;22291;52.250;21.228;2023-04-02T07:13:24;99743.77;;;4.89;87.68
36254;BME280;22291;52.250;21.228;2023-04-02T07:15:52;99751.34;;;4.84;87.34
36254;BME280;22291;52.250;21.228;2023-04-02T07:18:29;99757.54;;;4.79;87.11
36254;BME280;22291;52.250;21.228;2023-04-02T07:20:56;99759.70;;;4.77;87.30
36254;BME280;22291;52.250;21.228;2023-04-02T07:23:25;99759.44;;;4.76;87.30
36254;BME280;22291;52.250;21.228;2023-04-02T07:25:54;99765.34;;;4.76;87.21
36254;BME280;22291;52.250;21.228;2023-04-02T07:28:21;99782.77;;;4.76;87.02
36254;BME280;22291;52.250;21.228;2023-04-02T07:30:50;99780.64;;;4.73;86.52
36254;BME280;22291;52.250;21.228;2023-04-02T07:33:24;99785.26;;;4.67;86.23
36254;BME280;22291;52.250;21.228;2023-04-02T07:35:54;99782.86;;;4.63;86.33
36254;BME280;22291;52.250;21.228;2023-04-02T07:38:23;99784.20;;;4.65;86.21
36254;BME280;22291;52.250;21.228;2023-04-02T07:40:52;99795.41;;;4.70;86.78
36254;BME280;22291;52.250;21.228;2023-04-02T07:43:20;99794.27;;;4.79;86.23
36254;BME280;22291;52.250;21.228;2023-04-02T07:45:49;99793.16;;;4.82;86.35
36254;BME280;22291;52.250;21.228;2023-04-02T07:48:17;99788.58;;;4.85;86.24
36254;BME280;22291;52.250;21.228;2023-04-02T07:50:44;99795.97;;;4.94;86.26
36254;BME280;22291;52.250;21.228;2023-04-02T07:53:17;99802.11;;;4.97;85.47
36254;BME280;22291;52.250;21.228;2023-04-02T07:55:57;99811.77;;;4.95;84.83
36254;BME280;22291;52.250;21.228;2023-04-02T07:58:27;99803.78;;;4.90;84.26
36254;BME280;22291;52.250;21.228;2023-04-02T08:00:57;99813.72;;;4.90;84.32
36254;BME280;22291;52.250;21.228;2023-04-02T08:03:26;99814.23;;;4.92;84.53
36254;BME280;22291;52.250;21.228;2023-04-02T08:05:55;99821.74;;;4.92;84.25
36254;BME280;22291;52.250;21.228;2023-04-02T08:08:23;99813.44;;;4.91;83.91
36254;BME280;22291;52.250;21.228;2023-04-02T08:10:51;99820.14;;;4.91;83.86
36254;BME280;22291;52.250;21.228;2023-04-02T08:13:18;99818.00;;;4.91;83.68
36254;BME280;22291;52.250;21.228;2023-04-02T08:15:44;99818.28;;;4.89;83.69
36254;BME280;22291;52.250;21.228;2023-04-02T08:18:12;99820.64;;;4.93;84.12
36254;BME280;22291;52.250;21.228;2023-04-02T08:20:39;99823.27;;;5.01;84.03
36254;BME280;22291;52.250;21.228;2023-04-02T08:23:14;99824.56;;;5.03;84.09
36254;BME280;22291;52.250;21.228;2023-04-02T08:25:44;99832.83;;;5.10;84.13
36254;BME280;22291;52.250;21.228;2023-04-02T08:28:12;99841.37;;;5.14;83.93
36254;BME280;22291;52.250;21.228;2023-04-02T08:30:39;99856.12;;;5.14;83.36
36254;BME280;22291;52.250;21.228;2023-04-02T08:33:06;99852.66;;;5.11;83.20
36254;BME280;22291;52.250;21.228;2023-04-02T08:35:33;99849.16;;;5.11;83.15
36254;BME280;22291;52.250;21.228;2023-04-02T08:38:00;99845.97;;;5.09;82.84
36254;BME280;22291;52.250;21.228;2023-04-02T08:40:33;99842.49;;;5.08;82.80
36254;BME280;22291;52.250;21.228;2023-04-02T08:46:25;99853.73;;;5.10;82.94
36254;BME280;22291;52.250;21.228;2023-04-02T08:49:01;99855.86;;;5.11;82.99
36254;BME280;22291;52.250;21.228;2023-04-02T08:51:34;99855.84;;;5.13;82.88
36254;BME280;22291;52.250;21.228;2023-04-02T08:54:10;99861.17;;;5.16;82.94
36254;BME280;22291;52.250;21.228;2023-04-02T08:57:06;99870.81;;;5.19;82.88
36254;BME280;22291;52.250;21.228;2023-04-02T08:59:41;99882.57;;;5.21;82.72
36254;BME280;22291;52.250;21.228;2023-04-02T09:02:28;99887.19;;;5.18;82.38
36254;BME280;22291;52.250;21.228;2023-04-02T09:04:57;99889.88;;;5.15;82.34
36254;BME280;22291;52.250;21.228;2023-04-02T09:07:27;99894.69;;;5.16;82.41
36254;BME280;22291;52.250;21.228;2023-04-02T09:09:55;99896.58;;;5.15;82.35
36254;BME280;22291;52.250;21.228;2023-04-02T09:12:28;99905.68;;;5.17;82.45
36254;BME280;22291;52.250;21.228;2023-04-02T09:17:32;99915.10;;;5.14;82.10
36254;BME280;22291;52.250;21.228;2023-04-02T09:20:11;99911.37;;;5.10;82.06
36254;BME280;22291;52.250;21.228;2023-04-02T09:22:48;99905.17;;;5.12;82.22
36254;BME280;22291;52.250;21.228;2023-04-02T09:25:26;99914.28;;;5.14;82.13
36254;BME280;22291;52.250;21.228;2023-04-02T09:27:57;99924.48;;;5.14;82.11
36254;BME280;22291;52.250;21.228;2023-04-02T09:33:39;99925.28;;;5.12;82.22
36254;BME280;22291;52.250;21.228;2023-04-02T09:39:17;99923.11;;;5.17;82.38
36254;BME280;22291;52.250;21.228;2023-04-02T09:41:46;99917.98;;;5.20;82.47
36254;BME280;22291;52.250;21.228;2023-04-02T09:44:23;99913.40;;;5.23;82.64
36254;BME280;22291;52.250;21.228;2023-04-02T09:46:56;99918.75;;;5.26;82.49
36254;BME280;22291;52.250;21.228;2023-04-02T09:49:30;99920.61;;;5.28;82.67
36254;BME280;22291;52.250;21.228;2023-04-02T09:52:05;99920.84;;;5.29;82.46
36254;BME280;22291;52.250;21.228;2023-04-02T09:55:03;99924.63;;;5.28;82.08
36254;BME280;22291;52.250;21.228;2023-04-02T09:57:31;99934.02;;;5.26;82.16
36254;BME280;22291;52.250;21.228;2023-04-02T10:00:10;99934.57;;;5.25;81.98
36254;BME280;22291;52.250;21.228;2023-04-02T10:05:45;99945.03;;;5.24;82.31
36254;BME280;22291;52.250;21.228;2023-04-02T10:08:24;99950.94;;;5.26;82.52
36254;BME280;22291;52.250;21.228;2023-04-02T10:10:56;99959.73;;;5.32;82.69
36254;BME280;22291;52.250;21.228;2023-04-02T10:13:34;99950.53;;;5.38;82.72
36254;BME280;22291;52.250;21.228;2023-04-02T10:16:22;99954.00;;;5.41;82.36
36254;BME280;22291;52.250;21.228;2023-04-02T10:18:56;99962.31;;;5.42;82.13
36254;BME280;22291;52.250;21.228;2023-04-02T10:21:36;99968.70;;;5.46;81.97
36254;BME280;22291;52.250;21.228;2023-04-02T10:24:00;99971.95;;;5.43;81.67
36254;BME280;22291;52.250;21.228;2023-04-02T10:26:44;99979.80;;;5.37;81.57
36254;BME280;22291;52.250;21.228;2023-04-02T10:40:27;99996.25;;;5.22;81.86
36254;BME280;22291;52.250;21.228;2023-04-02T10:46:27;99998.66;;;5.27;82.31
36254;BME280;22291;52.250;21.228;2023-04-02T10:52:12;100015.22;;;5.36;82.61
36254;BME280;22291;52.250;21.228;2023-04-02T10:54:51;100019.24;;;5.34;82.04
36254;BME280;22291;52.250;21.228;2023-04-02T10:57:29;100014.19;;;5.30;81.90
36254;BME280;22291;52.250;21.228;2023-04-02T11:03:05;100024.73;;;5.16;81.92
36254;BME280;22291;52.250;21.228;2023-04-02T11:05:47;100028.51;;;5.12;81.99
36254;BME280;22291;52.250;21.228;2023-04-02T11:11:03;100036.31;;;5.09;82.19
36254;BME280;22291;52.250;21.228;2023-04-02T11:14:09;100039.54;;;5.08;82.34
36254;BME280;22291;52.250;21.228;2023-04-02T11:16:38;100042.53;;;5.04;82.30
36254;BME280;22291;52.250;21.228;2023-04-02T11:24:36;100058.64;;;4.96;82.50
36254;BME280;22291;52.250;21.228;2023-04-02T11:27:14;100070.19;;;4.94;82.60
36254;BME280;22291;52.250;21.228;2023-04-02T11:32:52;100073.69;;;4.92;82.90
36254;BME280;22291;52.250;21.228;2023-04-02T11:40:51;100078.47;;;4.98;83.75
36254;BME280;22291;52.250;21.228;2023-04-02T11:52:01;100092.39;;;5.02;84.69
36254;BME280;22291;52.250;21.228;2023-04-02T11:54:32;100091.08;;;4.97;84.30
36254;BME280;22291;52.250;21.228;2023-04-02T12:06:03;100103.98;;;4.88;85.34
36254;BME280;22291;52.250;21.228;2023-04-02T12:11:15;100112.87;;;4.78;85.40
36254;BME280;22291;52.250;21.228;2023-04-02T12:13:47;100125.45;;;4.80;85.64
36254;BME280;22291;52.250;21.228;2023-04-02T12:16:15;100122.00;;;4.77;85.84
36254;BME280;22291;52.250;21.228;2023-04-02T12:18:50;100134.58;;;4.76;85.66
36254;BME280;22291;52.250;21.228;2023-04-02T12:21:22;100135.13;;;4.76;85.76
36254;BME280;22291;52.250;21.228;2023-04-02T12:23:56;100139.39;;;4.79;86.04
36254;BME280;22291;52.250;21.228;2023-04-02T12:26:33;100136.99;;;4.80;85.91
36254;BME280;22291;52.250;21.228;2023-04-02T12:29:24;100138.06;;;4.82;86.18
36254;BME280;22291;52.250;21.228;2023-04-02T12:31:55;100137.22;;;4.89;86.81
36254;BME280;22291;52.250;21.228;2023-04-02T12:34:26;100140.65;;;5.00;87.24
36254;BME280;22291;52.250;21.228;2023-04-02T12:37:00;100140.35;;;5.09;87.30
36254;BME280;22291;52.250;21.228;2023-04-02T12:39:31;100142.98;;;5.19;87.65
36254;BME280;22291;52.250;21.228;2023-04-02T12:41:59;100148.29;;;5.27;87.28
36254;BME280;22291;52.250;21.228;2023-04-02T12:44:28;100149.88;;;5.33;87.36
36254;BME280;22291;52.250;21.228;2023-04-02T12:46:57;100149.33;;;5.36;86.89
36254;BME280;22291;52.250;21.228;2023-04-02T12:49:40;100154.14;;;5.37;86.43
36254;BME280;22291;52.250;21.228;2023-04-02T12:52:14;100156.30;;;5.35;86.26
36254;BME280;22291;52.250;21.228;2023-04-02T12:54:48;100160.60;;;5.33;86.14
36254;BME280;22291;52.250;21.228;2023-04-02T13:03:01;100151.48;;;5.32;86.05
36254;BME280;22291;52.250;21.228;2023-04-02T13:05:39;100164.11;;;5.29;85.86
36254;BME280;22291;52.250;21.228;2023-04-02T13:08:19;100165.97;;;5.31;85.83
36254;BME280;22291;52.250;21.228;2023-04-02T13:10:58;100170.81;;;5.29;85.96
36254;BME280;22291;52.250;21.228;2023-04-02T13:13:48;100181.54;;;5.29;85.70
36254;BME280;22291;52.250;21.228;2023-04-02T13:16:06;100183.95;;;5.28;85.76
36254;BME280;22291;52.250;21.228;2023-04-02T13:18:46;100177.52;;;5.29;85.91
36254;BME280;22291;52.250;21.228;2023-04-02T13:23:47;100172.70;;;5.28;85.72
36254;BME280;22291;52.250;21.228;2023-04-02T13:26:23;100178.34;;;5.27;85.80
36254;BME280;22291;52.250;21.228;2023-04-02T13:31:42;100199.27;;;5.22;85.71
36254;BME280;22291;52.250;21.228;2023-04-02T13:34:09;100205.42;;;5.22;85.88
36254;BME280;22291;52.250;21.228;2023-04-02T13:36:35;100211.61;;;5.23;85.97
36254;BME280;22291;52.250;21.228;2023-04-02T13:39:02;100208.66;;;5.22;85.87
36254;BME280;22291;52.250;21.228;2023-04-02T13:41:38;100217.52;;;5.20;86.05
36254;BME280;22291;52.250;21.228;2023-04-02T13:44:03;100222.09;;;5.19;85.87
36254;BME280;22291;52.250;21.228;2023-04-02T13:46:32;100212.70;;;5.19;86.07
36254;BME280;22291;52.250;21.228;2023-04-02T13:48:59;100206.53;;;5.14;85.79
36254;BME280;22291;52.250;21.228;2023-04-02T13:51:38;100204.40;;;5.11;86.00
36254;BME280;22291;52.250;21.228;2023-04-02T13:54:31;100208.17;;;5.10;86.27
36254;BME280;22291;52.250;21.228;2023-04-02T13:56:56;100215.72;;;5.02;86.05
36254;BME280;22291;52.250;21.228;2023-04-02T13:59:23;100209.82;;;4.98;86.41
36254;BME280;22291;52.250;21.228;2023-04-02T14:01:54;100222.95;;;4.99;86.85
36254;BME280;22291;52.250;21.228;2023-04-02T14:04:26;100229.38;;;4.98;86.56
36254;BME280;22291;52.250;21.228;2023-04-02T14:21:13;100250.59;;;4.84;87.28
36254;BME280;22291;52.250;21.228;2023-04-02T14:26:43;100240.41;;;4.86;87.14
36254;BME280;22291;52.250;21.228;2023-04-02T14:33:24;100243.36;;;4.80;87.41
36254;BME280;22291;52.250;21.228;2023-04-02T14:35:32;100235.32;;;4.80;87.95
36254;BME280;22291;52.250;21.228;2023-04-02T14:38:24;100244.17;;;4.78;87.71
36254;BME280;22291;52.250;21.228;2023-04-02T14:41:03;100261.34;;;4.77;87.50
36254;BME280;22291;52.250;21.228;2023-04-02T14:43:38;100269.64;;;4.73;87.35
36254;BME280;22291;52.250;21.228;2023-04-02T14:46:06;100260.00;;;4.69;87.67
36254;BME280;22291;52.250;21.228;2023-04-02T14:48:55;100276.36;;;4.70;87.96
36254;BME280;22291;52.250;21.228;2023-04-02T14:51:47;100280.64;;;4.68;88.00
36254;BME280;22291;52.250;21.228;2023-04-02T14:58:03;100285.20;;;4.65;88.17
36254;BME280;22291;52.250;21.228;2023-04-02T15:00:44;100285.20;;;4.55;87.60
36254;BME280;22291;52.250;21.228;2023-04-02T15:03:24;100287.87;;;4.47;87.73
36254;BME280;22291;52.250;21.228;2023-04-02T15:05:59;100290.83;;;4.43;87.57
36254;BME280;22291;52.250;21.228;2023-04-02T15:08:39;100287.36;;;4.38;87.90
36254;BME280;22291;52.250;21.228;2023-04-02T15:11:26;100290.30;;;4.31;88.11
36254;BME280;22291;52.250;21.228;2023-04-02T15:13:59;100308.22;;;4.30;88.30
36254;BME280;22291;52.250;21.228;2023-04-02T15:16:29;100305.00;;;4.23;88.08
36254;BME280;22291;52.250;21.228;2023-04-02T15:19:00;100309.55;;;4.20;88.01
36254;BME280;22291;52.250;21.228;2023-04-02T15:21:35;100311.14;;;4.19;88.41
36254;BME280;22291;52.250;21.228;2023-04-02T15:24:23;100308.20;;;4.15;88.28
36254;BME280;22291;52.250;21.228;2023-04-02T15:30:22;100323.19;;;4.06;88.76
36254;BME280;22291;52.250;21.228;2023-04-02T15:32:57;100326.64;;;4.01;88.83
36254;BME280;22291;52.250;21.228;2023-04-02T15:35:44;100338.16;;;3.99;88.86
36254;BME280;22291;52.250;21.228;2023-04-02T15:38:32;100342.44;;;3.95;88.67
36254;BME280;22291;52.250;21.228;2023-04-02T15:41:29;100345.36;;;3.88;88.95
36254;BME280;22291;52.250;21.228;2023-04-02T15:44:12;100339.71;;;3.82;89.08
36254;BME280;22291;52.250;21.228;2023-04-02T15:49:45;100351.17;;;3.72;89.03
36254;BME280;22291;52.250;21.228;2023-04-02T15:52:35;100354.08;;;3.66;89.30
36254;BME280;22291;52.250;21.228;2023-04-02T16:01:13;100366.92;;;3.64;89.91
36254;BME280;22291;52.250;21.228;2023-04-02T16:04:18;100378.95;;;3.64;90.24
36254;BME280;22291;52.250;21.228;2023-04-02T16:12:14;100396.83;;;3.53;90.06
36254;BME280;22291;52.250;21.228;2023-04-02T16:14:45;100387.98;;;3.50;90.27
36254;BME280;22291;52.250;21.228;2023-04-02T16:17:23;100396.27;;;3.48;90.36
36254;BME280;22291;52.250;21.228;2023-04-02T16:20:13;100396.52;;;3.44;90.53
36254;BME280;22291;52.250;21.228;2023-04-02T16:22:42;100403.46;;;3.43;90.58
36254;BME280;22291;52.250;21.228;2023-04-02T16:25:18;100409.61;;;3.41;90.59
36254;BME280;22291;52.250;21.228;2023-04-02T16:36:34;100422.11;;;3.32;91.23
36254;BME280;22291;52.250;21.228;2023-04-02T16:51:11;100449.28;;;3.19;91.10
36254;BME280;22291;52.250;21.228;2023-04-02T16:53:59;100451.66;;;3.15;91.04
36254;BME280;22291;52.250;21.228;2023-04-02T16:56:38;100461.23;;;3.11;90.98
36254;BME280;22291;52.250;21.228;2023-04-02T17:08:22;100475.89;;;3.04;91.64
36254;BME280;22291;52.250;21.228;2023-04-02T17:16:18;100481.23;;;3.04;92.11
36254;BME280;22291;52.250;21.228;2023-04-02T17:18:50;100480.44;;;3.03;92.17
36254;BME280;22291;52.250;21.228;2023-04-02T17:21:24;100476.67;;;3.02;92.20
36254;BME280;22291;52.250;21.228;2023-04-02T17:26:34;100478.81;;;3.02;92.25
36254;BME280;22291;52.250;21.228;2023-04-02T17:29:07;100487.91;;;3.04;92.42
36254;BME280;22291;52.250;21.228;2023-04-02T17:31:37;100486.58;;;3.04;92.43
36254;BME280;22291;52.250;21.228;2023-04-02T17:34:11;100494.09;;;3.07;92.68